sensor_id;sensor_type;location;lat;lon;timestamp;temperature;humidity
12817;DHT22;6473;51.552;6.716;2023-07-28T00:01:41;18.10;99.90
12817;DHT22;6473;51.552;6.716;2023-07-28T00:04:08;17.00;99.90
12817;DHT22;6473;51.552;6.716;2023-07-28T00:06:36;17.00;99.90
12817;DHT22;6473;51.552;6.716;2023-07-28T00:09:03;17.00;99.90
12817;DHT22;6473;51.552;6.716;2023-07-28T00:11:30;17.10;99.90
12817;DHT22;6473;51.552;6.716;2023-07-28T00:13:56;17.00;99.90
12817;DHT22;6473;51.552;6.716;2023-07-28T00:16:25;17.00;99.90
12817;DHT22;6473;51.552;6.716;2023-07-28T00:18:51;17.70;99.90
12817;DHT22;6473;51.552;6.716;2023-07-28T00:21:18;17.00;99.90
12817;DHT22;6473;51.552;6.716;2023-07-28T00:23:45;17.60;99.90
12817;DHT22;6473;51.552;6.716;2023-07-28T00:26:12;17.00;99.90
12817;DHT22;6473;51.552;6.716;2023-07-28T00:28:39;18.40;99.90
12817;DHT22;6473;51.552;6.716;2023-07-28T00:31:06;17.00;99.90
12817;DHT22;6473;51.552;6.716;2023-07-28T00:33:34;17.00;99.90
12817;DHT22;6473;51.552;6.716;2023-07-28T00:36:00;16.90;99.90
12817;DHT22;6473;51.552;6.716;2023-07-28T00:38:27;17.00;99.90
12817;DHT22;6473;51.552;6.716;2023-07-28T00:40:56;19.20;99.90
12817;DHT22;6473;51.552;6.716;2023-07-28T00:43:24;16.90;99.90
12817;DHT22;6473;51.552;6.716;2023-07-28T00:45:51;16.90;99.90
12817;DHT22;6473;51.552;6.716;2023-07-28T00:48:18;16.90;99.90
12817;DHT22;6473;51.552;6.716;2023-07-28T00:50:48;19.10;99.90
12817;DHT22;6473;51.552;6.716;2023-07-28T00:53:19;16.90;99.90
12817;DHT22;6473;51.552;6.716;2023-07-28T00:55:46;16.90;99.90
12817;DHT22;6473;51.552;6.716;2023-07-28T00:58:14;17.00;99.90
12817;DHT22;6473;51.552;6.716;2023-07-28T01:00:41;17.00;99.90
12817;DHT22;6473;51.552;6.716;2023-07-28T01:03:08;16.90;99.90
12817;DHT22;6473;51.552;6.716;2023-07-28T01:05:44;16.90;99.90
12817;DHT22;6473;51.552;6.716;2023-07-28T01:08:19;16.90;99.90
12817;DHT22;6473;51.552;6.716;2023-07-28T01:10:48;17.60;99.90
12817;DHT22;6473;51.552;6.716;2023-07-28T01:13:15;17.00;99.90
12817;DHT22;6473;51.552;6.716;2023-07-28T01:15:42;16.90;99.90
12817;DHT22;6473;51.552;6.716;2023-07-28T01:18:09;16.90;99.90
12817;DHT22;6473;51.552;6.716;2023-07-28T01:20:38;17.00;99.90
12817;DHT22;6473;51.552;6.716;2023-07-28T01:23:08;16.90;99.90
12817;DHT22;6473;51.552;6.716;2023-07-28T01:25:54;19.00;99.90
12817;DHT22;6473;51.552;6.716;2023-07-28T01:28:23;17.00;99.90
12817;DHT22;6473;51.552;6.716;2023-07-28T01:30:51;18.40;99.90
12817;DHT22;6473;51.552;6.716;2023-07-28T01:33:18;17.00;99.90
12817;DHT22;6473;51.552;6.716;2023-07-28T01:35:45;17.70;99.90
12817;DHT22;6473;51.552;6.716;2023-07-28T01:38:12;17.00;99.90
12817;DHT22;6473;51.552;6.716;2023-07-28T01:40:39;17.00;99.90
12817;DHT22;6473;51.552;6.716;2023-07-28T01:43:06;18.80;99.90
12817;DHT22;6473;51.552;6.716;2023-07-28T01:45:34;17.00;99.90
12817;DHT22;6473;51.552;6.716;2023-07-28T01:48:01;17.00;99.90
12817;DHT22;6473;51.552;6.716;2023-07-28T01:50:28;17.00;99.90
12817;DHT22;6473;51.552;6.716;2023-07-28T01:52:55;17.10;99.90
12817;DHT22;6473;51.552;6.716;2023-07-28T01:55:22;19.40;99.90
12817;DHT22;6473;51.552;6.716;2023-07-28T01:57:55;17.00;99.90
12817;DHT22;6473;51.552;6.716;2023-07-28T02:00:22;18.10;99.90
12817;DHT22;6473;51.552;6.716;2023-07-28T02:02:51;17.00;99.90
12817;DHT22;6473;51.552;6.716;2023-07-28T02:05:18;17.00;99.90
12817;DHT22;6473;51.552;6.716;2023-07-28T02:07:45;17.00;99.90
12817;DHT22;6473;51.552;6.716;2023-07-28T02:10:12;17.00;99.90
12817;DHT22;6473;51.552;6.716;2023-07-28T02:12:39;17.00;99.90
12817;DHT22;6473;51.552;6.716;2023-07-28T02:15:07;17.10;99.90
12817;DHT22;6473;51.552;6.716;2023-07-28T02:17:34;17.10;99.90
12817;DHT22;6473;51.552;6.716;2023-07-28T02:20:03;17.00;99.90
12817;DHT22;6473;51.552;6.716;2023-07-28T02:22:30;17.00;99.90
12817;DHT22;6473;51.552;6.716;2023-07-28T02:24:57;17.00;99.90
12817;DHT22;6473;51.552;6.716;2023-07-28T02:27:27;17.10;99.90
12817;DHT22;6473;51.552;6.716;2023-07-28T02:29:55;17.10;99.90
12817;DHT22;6473;51.552;6.716;2023-07-28T02:32:22;17.10;99.90
12817;DHT22;6473;51.552;6.716;2023-07-28T02:34:49;17.20;99.90
12817;DHT22;6473;51.552;6.716;2023-07-28T02:37:17;17.10;99.90
12817;DHT22;6473;51.552;6.716;2023-07-28T02:39:44;17.10;99.90
12817;DHT22;6473;51.552;6.716;2023-07-28T02:42:12;17.10;99.90
12817;DHT22;6473;51.552;6.716;2023-07-28T02:44:39;17.20;99.90
12817;DHT22;6473;51.552;6.716;2023-07-28T02:47:06;17.10;99.90
12817;DHT22;6473;51.552;6.716;2023-07-28T02:49:34;17.10;99.90
12817;DHT22;6473;51.552;6.716;2023-07-28T02:52:01;17.10;99.90
12817;DHT22;6473;51.552;6.716;2023-07-28T02:54:30;17.80;99.90
12817;DHT22;6473;51.552;6.716;2023-07-28T02:56:57;17.10;99.90
12817;DHT22;6473;51.552;6.716;2023-07-28T02:59:24;17.10;99.90
12817;DHT22;6473;51.552;6.716;2023-07-28T03:01:51;17.10;99.90
12817;DHT22;6473;51.552;6.716;2023-07-28T03:04:19;18.10;99.90
12817;DHT22;6473;51.552;6.716;2023-07-28T03:07:18;17.10;99.90
12817;DHT22;6473;51.552;6.716;2023-07-28T03:09:53;17.80;99.90
12817;DHT22;6473;51.552;6.716;2023-07-28T03:12:20;18.70;99.90
12817;DHT22;6473;51.552;6.716;2023-07-28T03:14:47;17.20;99.90
12817;DHT22;6473;51.552;6.716;2023-07-28T03:17:14;17.30;99.90
12817;DHT22;6473;51.552;6.716;2023-07-28T03:19:41;17.10;99.90
12817;DHT22;6473;51.552;6.716;2023-07-28T03:22:08;17.20;99.90
12817;DHT22;6473;51.552;6.716;2023-07-28T03:24:35;17.10;99.90
12817;DHT22;6473;51.552;6.716;2023-07-28T03:27:04;17.30;99.90
12817;DHT22;6473;51.552;6.716;2023-07-28T03:29:31;17.10;99.90
12817;DHT22;6473;51.552;6.716;2023-07-28T03:31:57;17.20;99.90
12817;DHT22;6473;51.552;6.716;2023-07-28T03:34:24;17.20;99.90
12817;DHT22;6473;51.552;6.716;2023-07-28T03:36:53;17.90;99.90
12817;DHT22;6473;51.552;6.716;2023-07-28T03:39:20;17.10;99.90
12817;DHT22;6473;51.552;6.716;2023-07-28T03:41:48;17.10;99.90
12817;DHT22;6473;51.552;6.716;2023-07-28T03:44:16;17.10;99.90
12817;DHT22;6473;51.552;6.716;2023-07-28T03:46:45;17.10;99.90
12817;DHT22;6473;51.552;6.716;2023-07-28T03:49:12;17.10;99.90
12817;DHT22;6473;51.552;6.716;2023-07-28T03:51:39;17.10;99.90
12817;DHT22;6473;51.552;6.716;2023-07-28T03:54:06;17.10;99.90
12817;DHT22;6473;51.552;6.716;2023-07-28T03:56:32;17.10;99.90
12817;DHT22;6473;51.552;6.716;2023-07-28T03:58:59;17.10;99.90
12817;DHT22;6473;51.552;6.716;2023-07-28T04:01:27;17.20;99.90
12817;DHT22;6473;51.552;6.716;2023-07-28T04:03:54;17.10;99.90
12817;DHT22;6473;51.552;6.716;2023-07-28T04:06:39;17.00;99.90
12817;DHT22;6473;51.552;6.716;2023-07-28T04:09:06;17.00;99.90
12817;DHT22;6473;51.552;6.716;2023-07-28T04:11:33;17.00;99.90
12817;DHT22;6473;51.552;6.716;2023-07-28T04:14:01;17.00;99.90
12817;DHT22;6473;51.552;6.716;2023-07-28T04:16:30;19.10;99.90
12817;DHT22;6473;51.552;6.716;2023-07-28T04:18:57;17.00;99.90
12817;DHT22;6473;51.552;6.716;2023-07-28T04:21:24;17.00;99.90
12817;DHT22;6473;51.552;6.716;2023-07-28T04:23:51;17.00;99.90
12817;DHT22;6473;51.552;6.716;2023-07-28T04:26:18;18.10;99.90
12817;DHT22;6473;51.552;6.716;2023-07-28T04:28:50;17.60;99.90
12817;DHT22;6473;51.552;6.716;2023-07-28T04:31:17;17.00;99.90
12817;DHT22;6473;51.552;6.716;2023-07-28T04:33:53;17.00;99.90
12817;DHT22;6473;51.552;6.716;2023-07-28T04:36:21;17.10;99.90
12817;DHT22;6473;51.552;6.716;2023-07-28T04:38:48;17.70;99.90
12817;DHT22;6473;51.552;6.716;2023-07-28T04:41:15;18.60;99.90
12817;DHT22;6473;51.552;6.716;2023-07-28T04:43:50;17.00;99.90
12817;DHT22;6473;51.552;6.716;2023-07-28T04:46:17;17.10;99.90
12817;DHT22;6473;51.552;6.716;2023-07-28T04:48:49;17.10;99.90
12817;DHT22;6473;51.552;6.716;2023-07-28T04:51:36;17.10;99.90
12817;DHT22;6473;51.552;6.716;2023-07-28T04:54:32;17.10;99.90
12817;DHT22;6473;51.552;6.716;2023-07-28T04:56:59;17.40;99.90
12817;DHT22;6473;51.552;6.716;2023-07-28T04:59:31;18.10;99.90
12817;DHT22;6473;51.552;6.716;2023-07-28T05:01:58;17.20;99.90
12817;DHT22;6473;51.552;6.716;2023-07-28T05:04:26;17.90;99.90
12817;DHT22;6473;51.552;6.716;2023-07-28T05:06:54;17.30;99.90
12817;DHT22;6473;51.552;6.716;2023-07-28T05:09:21;17.40;99.90
12817;DHT22;6473;51.552;6.716;2023-07-28T05:11:48;17.30;99.90
12817;DHT22;6473;51.552;6.716;2023-07-28T05:14:16;17.30;99.90
12817;DHT22;6473;51.552;6.716;2023-07-28T05:16:43;17.40;99.90
12817;DHT22;6473;51.552;6.716;2023-07-28T05:19:10;17.50;99.90
12817;DHT22;6473;51.552;6.716;2023-07-28T05:21:56;17.50;99.90
12817;DHT22;6473;51.552;6.716;2023-07-28T05:24:42;17.50;99.90
12817;DHT22;6473;51.552;6.716;2023-07-28T05:27:09;18.70;99.90
12817;DHT22;6473;51.552;6.716;2023-07-28T05:29:37;17.50;99.90
12817;DHT22;6473;51.552;6.716;2023-07-28T05:32:06;17.50;99.90
12817;DHT22;6473;51.552;6.716;2023-07-28T05:34:42;17.60;99.90
12817;DHT22;6473;51.552;6.716;2023-07-28T05:37:10;17.60;99.90
12817;DHT22;6473;51.552;6.716;2023-07-28T05:39:37;17.50;99.90
12817;DHT22;6473;51.552;6.716;2023-07-28T05:42:05;20.10;99.90
12817;DHT22;6473;51.552;6.716;2023-07-28T05:44:32;17.60;99.90
12817;DHT22;6473;51.552;6.716;2023-07-28T05:46:59;17.60;99.90
12817;DHT22;6473;51.552;6.716;2023-07-28T05:49:25;17.70;99.90
12817;DHT22;6473;51.552;6.716;2023-07-28T05:51:52;17.70;99.90
12817;DHT22;6473;51.552;6.716;2023-07-28T05:54:20;17.70;99.90
12817;DHT22;6473;51.552;6.716;2023-07-28T05:56:47;17.70;99.90
12817;DHT22;6473;51.552;6.716;2023-07-28T05:59:15;17.80;99.90
12817;DHT22;6473;51.552;6.716;2023-07-28T06:01:42;17.70;99.90
12817;DHT22;6473;51.552;6.716;2023-07-28T06:04:28;17.70;99.90
12817;DHT22;6473;51.552;6.716;2023-07-28T06:06:58;17.70;99.90
12817;DHT22;6473;51.552;6.716;2023-07-28T06:09:26;17.80;99.90
12817;DHT22;6473;51.552;6.716;2023-07-28T06:11:53;17.80;99.90
12817;DHT22;6473;51.552;6.716;2023-07-28T06:14:20;17.80;99.90
12817;DHT22;6473;51.552;6.716;2023-07-28T06:16:47;17.80;99.90
12817;DHT22;6473;51.552;6.716;2023-07-28T06:19:15;17.90;99.90
12817;DHT22;6473;51.552;6.716;2023-07-28T06:21:49;17.80;99.90
12817;DHT22;6473;51.552;6.716;2023-07-28T06:24:16;17.80;99.90
12817;DHT22;6473;51.552;6.716;2023-07-28T06:26:44;17.90;99.90
12817;DHT22;6473;51.552;6.716;2023-07-28T06:29:11;18.30;99.90
12817;DHT22;6473;51.552;6.716;2023-07-28T06:31:38;17.90;99.90
12817;DHT22;6473;51.552;6.716;2023-07-28T06:34:05;18.00;99.90
12817;DHT22;6473;51.552;6.716;2023-07-28T06:36:32;18.00;99.90
12817;DHT22;6473;51.552;6.716;2023-07-28T06:38:59;18.00;99.90
12817;DHT22;6473;51.552;6.716;2023-07-28T06:41:26;18.00;99.90
12817;DHT22;6473;51.552;6.716;2023-07-28T06:44:00;18.00;99.90
12817;DHT22;6473;51.552;6.716;2023-07-28T06:46:28;18.10;99.90
12817;DHT22;6473;51.552;6.716;2023-07-28T06:48:54;18.10;99.90
12817;DHT22;6473;51.552;6.716;2023-07-28T06:51:21;20.00;99.90
12817;DHT22;6473;51.552;6.716;2023-07-28T06:53:48;18.30;99.90
12817;DHT22;6473;51.552;6.716;2023-07-28T06:56:15;18.70;99.90
12817;DHT22;6473;51.552;6.716;2023-07-28T06:58:43;19.90;99.90
12817;DHT22;6473;51.552;6.716;2023-07-28T07:01:11;18.30;99.90
12817;DHT22;6473;51.552;6.716;2023-07-28T07:03:38;18.50;99.90
12817;DHT22;6473;51.552;6.716;2023-07-28T07:06:05;18.30;99.90
12817;DHT22;6473;51.552;6.716;2023-07-28T07:08:32;18.80;99.90
12817;DHT22;6473;51.552;6.716;2023-07-28T07:10:59;18.60;99.90
12817;DHT22;6473;51.552;6.716;2023-07-28T07:13:26;18.60;99.90
12817;DHT22;6473;51.552;6.716;2023-07-28T07:15:53;18.70;99.90
12817;DHT22;6473;51.552;6.716;2023-07-28T07:18:21;18.70;99.90
12817;DHT22;6473;51.552;6.716;2023-07-28T07:20:47;18.70;99.90
12817;DHT22;6473;51.552;6.716;2023-07-28T07:23:14;18.90;99.90
12817;DHT22;6473;51.552;6.716;2023-07-28T07:25:41;18.80;99.90
12817;DHT22;6473;51.552;6.716;2023-07-28T07:28:09;19.00;99.90
12817;DHT22;6473;51.552;6.716;2023-07-28T07:30:36;19.30;99.90
12817;DHT22;6473;51.552;6.716;2023-07-28T07:33:03;19.20;99.90
12817;DHT22;6473;51.552;6.716;2023-07-28T07:35:35;19.50;99.90
12817;DHT22;6473;51.552;6.716;2023-07-28T07:38:03;19.70;99.90
12817;DHT22;6473;51.552;6.716;2023-07-28T07:40:30;19.80;99.90
12817;DHT22;6473;51.552;6.716;2023-07-28T07:42:56;19.90;99.90
12817;DHT22;6473;51.552;6.716;2023-07-28T07:45:23;20.00;99.90
12817;DHT22;6473;51.552;6.716;2023-07-28T07:47:50;21.00;99.90
12817;DHT22;6473;51.552;6.716;2023-07-28T07:50:17;19.70;99.90
12817;DHT22;6473;51.552;6.716;2023-07-28T07:52:45;19.80;99.90
12817;DHT22;6473;51.552;6.716;2023-07-28T07:55:12;19.80;99.90
12817;DHT22;6473;51.552;6.716;2023-07-28T07:57:39;19.70;99.90
12817;DHT22;6473;51.552;6.716;2023-07-28T08:00:07;19.60;99.90
12817;DHT22;6473;51.552;6.716;2023-07-28T08:02:40;19.60;99.90
12817;DHT22;6473;51.552;6.716;2023-07-28T08:05:07;19.90;99.90
12817;DHT22;6473;51.552;6.716;2023-07-28T08:07:35;19.80;99.90
12817;DHT22;6473;51.552;6.716;2023-07-28T08:10:04;20.00;99.90
12817;DHT22;6473;51.552;6.716;2023-07-28T08:12:31;20.10;99.90
12817;DHT22;6473;51.552;6.716;2023-07-28T08:14:58;20.20;99.90
12817;DHT22;6473;51.552;6.716;2023-07-28T08:17:25;20.20;99.90
12817;DHT22;6473;51.552;6.716;2023-07-28T08:19:52;20.50;99.90
12817;DHT22;6473;51.552;6.716;2023-07-28T08:22:19;20.40;99.90
12817;DHT22;6473;51.552;6.716;2023-07-28T08:24:46;20.30;99.90
12817;DHT22;6473;51.552;6.716;2023-07-28T08:27:15;20.20;99.90
12817;DHT22;6473;51.552;6.716;2023-07-28T08:29:42;20.30;99.90
12817;DHT22;6473;51.552;6.716;2023-07-28T08:32:09;20.30;99.90
12817;DHT22;6473;51.552;6.716;2023-07-28T08:34:37;20.50;99.90
12817;DHT22;6473;51.552;6.716;2023-07-28T08:37:04;20.70;99.90
12817;DHT22;6473;51.552;6.716;2023-07-28T08:39:32;20.80;99.90
12817;DHT22;6473;51.552;6.716;2023-07-28T08:42:00;20.90;99.90
12817;DHT22;6473;51.552;6.716;2023-07-28T08:44:29;20.90;99.90
12817;DHT22;6473;51.552;6.716;2023-07-28T08:46:56;22.90;99.90
12817;DHT22;6473;51.552;6.716;2023-07-28T08:49:24;21.70;99.90
12817;DHT22;6473;51.552;6.716;2023-07-28T08:51:52;20.70;99.90
12817;DHT22;6473;51.552;6.716;2023-07-28T08:54:24;20.70;99.90
12817;DHT22;6473;51.552;6.716;2023-07-28T08:56:50;20.70;99.90
12817;DHT22;6473;51.552;6.716;2023-07-28T08:59:21;20.60;99.90
12817;DHT22;6473;51.552;6.716;2023-07-28T09:01:51;20.60;99.90
12817;DHT22;6473;51.552;6.716;2023-07-28T09:04:17;21.30;99.90
12817;DHT22;6473;51.552;6.716;2023-07-28T09:06:46;20.70;99.90
12817;DHT22;6473;51.552;6.716;2023-07-28T09:09:13;20.80;99.90
12817;DHT22;6473;51.552;6.716;2023-07-28T09:11:44;20.90;99.90
12817;DHT22;6473;51.552;6.716;2023-07-28T09:14:12;21.90;99.90
12817;DHT22;6473;51.552;6.716;2023-07-28T09:16:39;21.10;99.90
12817;DHT22;6473;51.552;6.716;2023-07-28T09:19:08;21.30;99.90
12817;DHT22;6473;51.552;6.716;2023-07-28T09:21:35;21.60;99.90
12817;DHT22;6473;51.552;6.716;2023-07-28T09:24:05;22.00;99.90
12817;DHT22;6473;51.552;6.716;2023-07-28T09:26:39;22.20;99.90
12817;DHT22;6473;51.552;6.716;2023-07-28T09:29:14;22.40;99.90
12817;DHT22;6473;51.552;6.716;2023-07-28T09:31:41;22.40;99.90
12817;DHT22;6473;51.552;6.716;2023-07-28T09:34:10;22.50;99.90
12817;DHT22;6473;51.552;6.716;2023-07-28T09:36:38;22.60;99.90
12817;DHT22;6473;51.552;6.716;2023-07-28T09:39:05;23.20;99.90
12817;DHT22;6473;51.552;6.716;2023-07-28T09:41:35;23.70;99.90
12817;DHT22;6473;51.552;6.716;2023-07-28T09:44:03;24.40;99.90
12817;DHT22;6473;51.552;6.716;2023-07-28T09:46:33;24.90;99.90
12817;DHT22;6473;51.552;6.716;2023-07-28T09:49:04;25.20;99.90
12817;DHT22;6473;51.552;6.716;2023-07-28T09:51:34;25.00;99.90
12817;DHT22;6473;51.552;6.716;2023-07-28T09:54:04;24.20;99.90
12817;DHT22;6473;51.552;6.716;2023-07-28T09:56:32;24.30;99.90
12817;DHT22;6473;51.552;6.716;2023-07-28T09:59:01;23.80;99.90
12817;DHT22;6473;51.552;6.716;2023-07-28T10:01:30;24.10;99.90
12817;DHT22;6473;51.552;6.716;2023-07-28T10:03:59;24.20;99.90
12817;DHT22;6473;51.552;6.716;2023-07-28T10:06:26;24.10;99.90
12817;DHT22;6473;51.552;6.716;2023-07-28T10:08:56;23.70;99.90
12817;DHT22;6473;51.552;6.716;2023-07-28T10:11:23;23.60;99.90
12817;DHT22;6473;51.552;6.716;2023-07-28T10:13:51;23.70;99.90
12817;DHT22;6473;51.552;6.716;2023-07-28T10:16:29;23.50;99.90
12817;DHT22;6473;51.552;6.716;2023-07-28T10:18:57;23.10;99.90
12817;DHT22;6473;51.552;6.716;2023-07-28T10:21:28;23.00;99.90
12817;DHT22;6473;51.552;6.716;2023-07-28T10:23:57;22.80;99.90
12817;DHT22;6473;51.552;6.716;2023-07-28T10:26:38;22.70;99.90
12817;DHT22;6473;51.552;6.716;2023-07-28T10:29:13;22.60;99.90
12817;DHT22;6473;51.552;6.716;2023-07-28T10:31:50;22.60;99.90
12817;DHT22;6473;51.552;6.716;2023-07-28T10:34:18;22.60;99.90
12817;DHT22;6473;51.552;6.716;2023-07-28T10:36:45;23.30;99.90
12817;DHT22;6473;51.552;6.716;2023-07-28T10:39:15;23.90;99.90
12817;DHT22;6473;51.552;6.716;2023-07-28T10:42:01;25.30;99.90
12817;DHT22;6473;51.552;6.716;2023-07-28T10:44:29;23.00;99.90
12817;DHT22;6473;51.552;6.716;2023-07-28T10:46:56;22.80;99.90
12817;DHT22;6473;51.552;6.716;2023-07-28T10:49:24;22.80;99.90
12817;DHT22;6473;51.552;6.716;2023-07-28T10:51:51;23.10;99.90
12817;DHT22;6473;51.552;6.716;2023-07-28T10:54:19;23.60;99.90
12817;DHT22;6473;51.552;6.716;2023-07-28T10:56:47;23.80;99.90
12817;DHT22;6473;51.552;6.716;2023-07-28T10:59:14;23.90;99.90
12817;DHT22;6473;51.552;6.716;2023-07-28T11:01:42;23.90;99.90
12817;DHT22;6473;51.552;6.716;2023-07-28T11:04:11;23.80;99.90
12817;DHT22;6473;51.552;6.716;2023-07-28T11:06:41;23.80;99.90
12817;DHT22;6473;51.552;6.716;2023-07-28T11:09:09;23.50;99.90
12817;DHT22;6473;51.552;6.716;2023-07-28T11:11:38;23.50;99.90
12817;DHT22;6473;51.552;6.716;2023-07-28T11:14:05;23.50;99.90
12817;DHT22;6473;51.552;6.716;2023-07-28T11:16:34;23.60;99.90
12817;DHT22;6473;51.552;6.716;2023-07-28T11:19:02;23.30;99.90
12817;DHT22;6473;51.552;6.716;2023-07-28T11:21:29;23.30;99.90
12817;DHT22;6473;51.552;6.716;2023-07-28T11:23:56;23.40;99.90
12817;DHT22;6473;51.552;6.716;2023-07-28T11:26:23;23.60;99.90
12817;DHT22;6473;51.552;6.716;2023-07-28T11:28:51;23.90;99.90
12817;DHT22;6473;51.552;6.716;2023-07-28T11:31:23;24.20;99.90
12817;DHT22;6473;51.552;6.716;2023-07-28T11:33:52;24.40;99.90
12817;DHT22;6473;51.552;6.716;2023-07-28T11:36:22;24.70;99.90
12817;DHT22;6473;51.552;6.716;2023-07-28T11:38:49;25.30;99.90
12817;DHT22;6473;51.552;6.716;2023-07-28T11:41:17;25.50;99.90
12817;DHT22;6473;51.552;6.716;2023-07-28T11:43:45;25.50;99.90
12817;DHT22;6473;51.552;6.716;2023-07-28T11:46:33;25.40;99.90
12817;DHT22;6473;51.552;6.716;2023-07-28T11:49:07;25.60;99.90
12817;DHT22;6473;51.552;6.716;2023-07-28T11:51:38;26.20;99.30
12817;DHT22;6473;51.552;6.716;2023-07-28T11:54:06;27.30;93.70
12817;DHT22;6473;51.552;6.716;2023-07-28T11:56:33;28.50;64.10
12817;DHT22;6473;51.552;6.716;2023-07-28T11:59:01;28.50;56.20
12817;DHT22;6473;51.552;6.716;2023-07-28T12:01:28;28.70;50.30
12817;DHT22;6473;51.552;6.716;2023-07-28T12:03:56;29.40;23.50
12817;DHT22;6473;51.552;6.716;2023-07-28T12:06:26;29.10;26.20
12817;DHT22;6473;51.552;6.716;2023-07-28T12:09:03;29.20;10.80
12817;DHT22;6473;51.552;6.716;2023-07-28T12:11:30;28.60;14.70
12817;DHT22;6473;51.552;6.716;2023-07-28T12:13:57;28.10;18.40
12817;DHT22;6473;51.552;6.716;2023-07-28T12:16:40;27.40;25.50
12817;DHT22;6473;51.552;6.716;2023-07-28T12:19:09;27.80;39.00
12817;DHT22;6473;51.552;6.716;2023-07-28T12:21:36;28.40;24.30
12817;DHT22;6473;51.552;6.716;2023-07-28T12:24:03;28.60;21.90
12817;DHT22;6473;51.552;6.716;2023-07-28T12:26:30;28.50;3.00
12817;DHT22;6473;51.552;6.716;2023-07-28T12:28:59;27.20;17.00
12817;DHT22;6473;51.552;6.716;2023-07-28T12:31:26;27.40;31.90
12817;DHT22;6473;51.552;6.716;2023-07-28T12:33:53;27.30;32.40
12817;DHT22;6473;51.552;6.716;2023-07-28T12:36:21;28.10;20.30
12817;DHT22;6473;51.552;6.716;2023-07-28T12:38:48;29.00;1.00
12817;DHT22;6473;51.552;6.716;2023-07-28T12:41:15;28.70;11.60
12817;DHT22;6473;51.552;6.716;2023-07-28T12:43:42;29.40;5.90
12817;DHT22;6473;51.552;6.716;2023-07-28T12:46:09;29.90;1.00
12817;DHT22;6473;51.552;6.716;2023-07-28T12:48:36;30.20;1.00
12817;DHT22;6473;51.552;6.716;2023-07-28T12:51:03;28.90;1.00
12817;DHT22;6473;51.552;6.716;2023-07-28T12:53:31;28.70;2.30
12817;DHT22;6473;51.552;6.716;2023-07-28T12:55:58;28.70;12.90
12817;DHT22;6473;51.552;6.716;2023-07-28T12:58:25;28.30;9.60
12817;DHT22;6473;51.552;6.716;2023-07-28T13:00:53;27.90;12.40
12817;DHT22;6473;51.552;6.716;2023-07-28T13:03:20;28.00;18.50
12817;DHT22;6473;51.552;6.716;2023-07-28T13:05:47;27.90;15.50
12817;DHT22;6473;51.552;6.716;2023-07-28T13:08:14;27.70;15.40
12817;DHT22;6473;51.552;6.716;2023-07-28T13:10:42;27.70;23.20
12817;DHT22;6473;51.552;6.716;2023-07-28T13:13:09;27.20;16.20
12817;DHT22;6473;51.552;6.716;2023-07-28T13:15:36;27.20;23.30
12817;DHT22;6473;51.552;6.716;2023-07-28T13:18:03;27.60;24.90
12817;DHT22;6473;51.552;6.716;2023-07-28T13:20:29;28.30;1.10
12817;DHT22;6473;51.552;6.716;2023-07-28T13:22:56;28.10;1.00
12817;DHT22;6473;51.552;6.716;2023-07-28T13:25:23;27.80;7.90
12817;DHT22;6473;51.552;6.716;2023-07-28T13:27:52;27.30;8.80
12817;DHT22;6473;51.552;6.716;2023-07-28T13:30:19;27.00;17.80
12817;DHT22;6473;51.552;6.716;2023-07-28T13:32:46;27.00;13.90
12817;DHT22;6473;51.552;6.716;2023-07-28T13:35:12;27.20;12.90
12817;DHT22;6473;51.552;6.716;2023-07-28T13:37:40;28.50;1.00
12817;DHT22;6473;51.552;6.716;2023-07-28T13:40:07;29.00;1.00
12817;DHT22;6473;51.552;6.716;2023-07-28T13:42:34;29.20;1.00
12817;DHT22;6473;51.552;6.716;2023-07-28T13:45:03;28.70;1.00
12817;DHT22;6473;51.552;6.716;2023-07-28T13:47:30;28.30;1.00
12817;DHT22;6473;51.552;6.716;2023-07-28T13:49:56;27.80;1.00
12817;DHT22;6473;51.552;6.716;2023-07-28T13:52:23;27.40;2.20
12817;DHT22;6473;51.552;6.716;2023-07-28T13:54:50;27.40;1.00
12817;DHT22;6473;51.552;6.716;2023-07-28T13:57:17;27.50;11.20
12817;DHT22;6473;51.552;6.716;2023-07-28T13:59:44;27.70;1.50
12817;DHT22;6473;51.552;6.716;2023-07-28T14:02:12;28.10;1.00
12817;DHT22;6473;51.552;6.716;2023-07-28T14:04:39;28.70;1.00
12817;DHT22;6473;51.552;6.716;2023-07-28T14:07:06;28.90;1.00
12817;DHT22;6473;51.552;6.716;2023-07-28T14:09:33;28.70;1.00
12817;DHT22;6473;51.552;6.716;2023-07-28T14:12:01;28.20;1.00
12817;DHT22;6473;51.552;6.716;2023-07-28T14:14:28;27.70;1.00
12817;DHT22;6473;51.552;6.716;2023-07-28T14:16:55;27.20;1.00
12817;DHT22;6473;51.552;6.716;2023-07-28T14:19:23;26.90;8.20
12817;DHT22;6473;51.552;6.716;2023-07-28T14:21:50;26.70;14.50
12817;DHT22;6473;51.552;6.716;2023-07-28T14:24:17;26.70;17.80
12817;DHT22;6473;51.552;6.716;2023-07-28T14:26:44;26.80;22.10
12817;DHT22;6473;51.552;6.716;2023-07-28T14:29:11;27.50;14.10
12817;DHT22;6473;51.552;6.716;2023-07-28T14:31:38;27.60;13.70
12817;DHT22;6473;51.552;6.716;2023-07-28T14:34:05;27.60;8.00
12817;DHT22;6473;51.552;6.716;2023-07-28T14:36:33;27.80;9.40
12817;DHT22;6473;51.552;6.716;2023-07-28T14:39:02;27.60;7.20
12817;DHT22;6473;51.552;6.716;2023-07-28T14:41:29;27.20;18.00
12817;DHT22;6473;51.552;6.716;2023-07-28T14:43:55;27.00;7.60
12817;DHT22;6473;51.552;6.716;2023-07-28T14:46:22;26.60;12.80
12817;DHT22;6473;51.552;6.716;2023-07-28T14:48:50;26.80;24.10
12817;DHT22;6473;51.552;6.716;2023-07-28T14:51:17;27.10;11.40
12817;DHT22;6473;51.552;6.716;2023-07-28T14:53:46;26.70;15.00
12817;DHT22;6473;51.552;6.716;2023-07-28T14:56:14;26.40;28.30
12817;DHT22;6473;51.552;6.716;2023-07-28T14:58:41;27.00;45.50
12817;DHT22;6473;51.552;6.716;2023-07-28T15:01:10;26.50;35.20
12817;DHT22;6473;51.552;6.716;2023-07-28T15:03:37;26.60;42.80
12817;DHT22;6473;51.552;6.716;2023-07-28T15:06:05;26.80;41.20
12817;DHT22;6473;51.552;6.716;2023-07-28T15:08:32;26.70;34.60
12817;DHT22;6473;51.552;6.716;2023-07-28T15:11:00;26.60;28.20
12817;DHT22;6473;51.552;6.716;2023-07-28T15:13:27;25.90;31.40
12817;DHT22;6473;51.552;6.716;2023-07-28T15:15:54;25.80;48.30
12817;DHT22;6473;51.552;6.716;2023-07-28T15:18:21;25.50;51.70
12817;DHT22;6473;51.552;6.716;2023-07-28T15:20:48;24.90;75.40
12817;DHT22;6473;51.552;6.716;2023-07-28T15:23:15;24.70;89.20
12817;DHT22;6473;51.552;6.716;2023-07-28T15:25:42;24.50;93.40
12817;DHT22;6473;51.552;6.716;2023-07-28T15:28:12;24.50;94.10
12817;DHT22;6473;51.552;6.716;2023-07-28T15:30:39;24.10;93.20
12817;DHT22;6473;51.552;6.716;2023-07-28T15:33:07;23.90;98.80
12817;DHT22;6473;51.552;6.716;2023-07-28T15:35:34;22.30;99.30
12817;DHT22;6473;51.552;6.716;2023-07-28T15:38:01;23.60;99.90
12817;DHT22;6473;51.552;6.716;2023-07-28T15:40:29;23.70;99.90
12817;DHT22;6473;51.552;6.716;2023-07-28T15:42:56;23.40;99.90
12817;DHT22;6473;51.552;6.716;2023-07-28T15:45:24;23.50;99.90
12817;DHT22;6473;51.552;6.716;2023-07-28T15:47:51;23.40;99.90
12817;DHT22;6473;51.552;6.716;2023-07-28T15:50:18;23.50;99.90
12817;DHT22;6473;51.552;6.716;2023-07-28T15:52:44;23.50;99.90
12817;DHT22;6473;51.552;6.716;2023-07-28T15:55:11;23.50;99.90